createdAt,value
2022-08-25T00:01:33.957Z,24.05
2022-08-25T00:04:02.620Z,23.83
2022-08-25T00:06:30.526Z,23.60
2022-08-25T00:08:59.725Z,23.77
2022-08-25T00:11:30.625Z,23.92
2022-08-25T00:14:03.252Z,25.15
2022-08-25T00:16:33.904Z,23.90
2022-08-25T00:19:05.191Z,24.75
2022-08-25T00:21:32.758Z,25.17
2022-08-25T00:24:02.090Z,25.05
2022-08-25T00:26:29.426Z,24.77
2022-08-25T00:29:01.800Z,24.48
2022-08-25T00:31:37.830Z,24.92
2022-08-25T00:34:09.278Z,24.40
2022-08-25T00:36:36.768Z,24.95
2022-08-25T00:39:05.385Z,23.85
2022-08-25T00:41:32.317Z,24.60
2022-08-25T00:44:01.584Z,24.90
2022-08-25T00:46:36.619Z,24.67
2022-08-25T00:49:07.813Z,23.90
2022-08-25T00:52:04.361Z,25.20
2022-08-25T00:54:39.493Z,24.88
2022-08-25T00:57:09.358Z,25.88
2022-08-25T00:59:36.370Z,25.83
2022-08-25T01:02:05.639Z,25.13
2022-08-25T01:04:34.871Z,25.77
2022-08-25T01:07:02.579Z,26.45
2022-08-25T01:09:32.380Z,24.90
2022-08-25T01:12:00.502Z,25.30
2022-08-25T01:14:28.534Z,25.02
2022-08-25T01:16:55.453Z,25.95
2022-08-25T01:19:22.566Z,25.60
2022-08-25T01:21:51.844Z,26.30
2022-08-25T01:24:29.022Z,25.48
2022-08-25T01:26:55.733Z,26.40
2022-08-25T01:29:22.734Z,26.30
2022-08-25T01:32:01.193Z,26.52
2022-08-25T01:34:31.139Z,26.25
2022-08-25T01:36:59.116Z,25.58
2022-08-25T01:39:27.616Z,25.73
2022-08-25T01:42:06.169Z,25.73
2022-08-25T01:44:36.696Z,25.17
2022-08-25T01:47:04.686Z,25.85
2022-08-25T01:49:32.456Z,25.98
2022-08-25T01:52:11.155Z,25.90
2022-08-25T01:54:38.193Z,25.52
2022-08-25T01:57:05.003Z,26.58
2022-08-25T01:59:31.986Z,26.10
2022-08-25T02:01:59.887Z,27.13
2022-08-25T02:04:32.582Z,26.10
2022-08-25T02:07:01.639Z,27.10
2022-08-25T02:09:28.612Z,25.83
2022-08-25T02:11:56.705Z,26.67
2022-08-25T02:14:24.271Z,25.80
2022-08-25T02:16:53.555Z,26.48
2022-08-25T02:19:21.915Z,26.42
2022-08-25T02:21:48.779Z,26.75
2022-08-25T02:24:15.951Z,26.67
2022-08-25T02:26:43.387Z,26.17
2022-08-25T02:29:11.359Z,26.35
2022-08-25T02:31:41.884Z,27.63
2022-08-25T02:34:10.220Z,25.25
2022-08-25T02:36:38.209Z,25.60
2022-08-25T02:39:07.393Z,27.10
2022-08-25T02:41:34.868Z,25.60
2022-08-25T02:44:04.582Z,25.75
2022-08-25T02:46:32.446Z,26.58
2022-08-25T02:48:59.587Z,26.95
2022-08-25T02:51:28.457Z,26.48
2022-08-25T02:53:57.362Z,26.42
2022-08-25T02:56:25.670Z,27.63
2022-08-25T02:58:52.697Z,26.90
2022-08-25T03:01:20.229Z,26.98
2022-08-25T03:03:50.576Z,27.52
2022-08-25T03:06:20.523Z,27.48
2022-08-25T03:08:47.328Z,27.00
2022-08-25T03:11:14.165Z,26.70
2022-08-25T03:13:41.506Z,26.63
2022-08-25T03:16:10.773Z,27.95
2022-08-25T03:18:39.908Z,27.17
2022-08-25T03:21:07.641Z,27.38
2022-08-25T03:23:34.769Z,26.88
2022-08-25T03:26:20.557Z,27.05
2022-08-25T03:28:47.315Z,27.35
2022-08-25T03:31:14.241Z,27.48
2022-08-25T03:33:40.958Z,27.67
2022-08-25T03:36:08.629Z,26.60
2022-08-25T03:38:38.237Z,28.73
2022-08-25T03:41:16.702Z,27.88
2022-08-25T03:43:43.563Z,26.98
2022-08-25T03:46:30.299Z,26.95
2022-08-25T03:48:57.943Z,27.63
2022-08-25T03:51:28.452Z,26.75
2022-08-25T03:53:56.169Z,27.63
2022-08-25T03:56:22.873Z,27.75
2022-08-25T03:58:51.368Z,27.27
2022-08-25T04:01:18.261Z,27.13
2022-08-25T04:03:45.881Z,27.60
2022-08-25T04:06:13.364Z,27.73
2022-08-25T04:08:40.407Z,28.15
2022-08-25T04:11:12.986Z,28.40
2022-08-25T04:13:41.818Z,28.25
2022-08-25T04:16:14.170Z,28.45
2022-08-25T04:18:42.330Z,29.77
2022-08-25T04:21:10.714Z,29.20
2022-08-25T04:23:42.373Z,27.58
2022-08-25T04:26:24.927Z,28.65
2022-08-25T04:28:52.672Z,29.25
2022-08-25T04:31:21.756Z,28.60
2022-08-25T04:33:48.984Z,29.05
2022-08-25T04:36:17.422Z,28.42
2022-08-25T04:38:45.327Z,29.17
2022-08-25T04:41:14.022Z,30.55
2022-08-25T04:43:42.158Z,28.80
2022-08-25T04:46:12.407Z,29.23
2022-08-25T04:48:40.541Z,29.40
2022-08-25T04:51:10.988Z,28.95
2022-08-25T04:53:38.998Z,28.73
2022-08-25T04:56:07.697Z,29.23
2022-08-25T04:58:34.845Z,28.30
2022-08-25T05:01:06.245Z,29.92
2022-08-25T05:03:33.498Z,29.55
2022-08-25T05:06:00.521Z,27.90
2022-08-25T05:08:27.264Z,28.52
2022-08-25T05:10:56.484Z,28.27
2022-08-25T05:13:24.493Z,27.67
2022-08-25T05:15:56.211Z,27.27
2022-08-25T05:18:27.122Z,25.15
2022-08-25T05:20:54.907Z,24.92
2022-08-25T05:23:25.119Z,26.48
2022-08-25T05:25:52.863Z,25.58
2022-08-25T05:28:20.783Z,26.30
2022-08-25T05:30:49.318Z,25.27
2022-08-25T05:33:16.890Z,24.77
2022-08-25T05:35:43.882Z,24.27
2022-08-25T05:38:15.334Z,26.30
2022-08-25T05:40:42.543Z,25.60
2022-08-25T05:43:10.083Z,24.98
2022-08-25T05:45:36.793Z,25.23
2022-08-25T05:48:03.879Z,24.80
2022-08-25T05:50:30.716Z,25.77
2022-08-25T05:52:57.507Z,24.60
2022-08-25T05:55:24.245Z,24.75
2022-08-25T05:57:51.031Z,26.10
2022-08-25T06:00:18.640Z,25.50
2022-08-25T06:02:46.292Z,25.02
2022-08-25T06:05:18.947Z,25.48
2022-08-25T06:07:51.130Z,25.45
2022-08-25T06:10:20.096Z,26.48
2022-08-25T06:12:47.354Z,25.27
2022-08-25T06:15:17.194Z,25.98
2022-08-25T06:17:44.261Z,26.15
2022-08-25T06:20:14.731Z,25.85
2022-08-25T06:22:41.967Z,25.98
2022-08-25T06:25:10.692Z,27.60
2022-08-25T06:27:38.219Z,27.33
2022-08-25T06:30:08.283Z,27.17
2022-08-25T06:32:36.782Z,27.25
2022-08-25T06:35:10.415Z,28.55
2022-08-25T06:37:37.573Z,27.88
2022-08-25T06:40:06.738Z,27.55
2022-08-25T06:42:33.720Z,28.58
2022-08-25T06:45:01.414Z,27.80
2022-08-25T06:47:28.379Z,28.10
2022-08-25T06:49:55.088Z,27.33
2022-08-25T06:52:21.853Z,30.20
2022-08-25T06:54:56.090Z,27.48
2022-08-25T06:57:23.090Z,28.27
2022-08-25T06:59:49.830Z,30.02
2022-08-25T07:02:22.253Z,29.90
2022-08-25T07:04:49.575Z,29.63
2022-08-25T07:07:16.277Z,29.13
2022-08-25T07:09:42.967Z,29.88
2022-08-25T07:12:09.771Z,28.30
2022-08-25T07:14:36.872Z,30.77
2022-08-25T07:17:10.492Z,29.17
2022-08-25T07:19:39.387Z,30.20
2022-08-25T07:22:07.756Z,31.17
2022-08-25T07:24:36.196Z,29.98
2022-08-25T07:27:03.207Z,31.05
2022-08-25T07:29:33.164Z,31.30
2022-08-25T07:32:01.543Z,34.08
2022-08-25T07:34:51.996Z,32.95
2022-08-25T07:40:09.168Z,31.75
2022-08-25T07:42:37.781Z,32.28
2022-08-25T07:45:06.227Z,32.83
2022-08-25T07:47:34.650Z,31.67
2022-08-25T07:50:01.757Z,32.35
2022-08-25T07:52:28.407Z,33.50
2022-08-25T07:54:55.251Z,34.15
2022-08-25T07:57:24.004Z,33.25
2022-08-25T07:59:50.777Z,35.47
2022-08-25T08:02:19.354Z,34.92
2022-08-25T08:04:49.114Z,37.05
2022-08-25T08:07:23.430Z,36.50
2022-08-25T08:10:00.399Z,35.00
2022-08-25T08:12:38.529Z,36.20
2022-08-25T08:15:10.142Z,36.22
2022-08-25T08:17:38.384Z,35.40
2022-08-25T08:20:10.166Z,37.22
2022-08-25T08:22:42.592Z,37.33
2022-08-25T08:25:13.733Z,38.05
2022-08-25T08:27:46.132Z,38.03
2022-08-25T08:30:13.568Z,38.08
2022-08-25T08:33:05.897Z,39.95
2022-08-25T08:35:27.539Z,41.35
2022-08-25T08:37:54.267Z,39.45
2022-08-25T08:40:21.784Z,38.78
2022-08-25T08:43:02.350Z,40.35
2022-08-25T08:45:43.645Z,40.38
2022-08-25T08:48:40.332Z,41.70
2022-08-25T08:51:16.825Z,40.92
2022-08-25T08:53:57.893Z,40.53
2022-08-25T08:56:38.602Z,38.50
2022-08-25T08:59:30.106Z,39.40
2022-08-25T09:02:02.854Z,37.88
2022-08-25T09:04:33.683Z,37.80
2022-08-25T09:07:04.916Z,37.88
2022-08-25T09:09:35.603Z,38.10
2022-08-25T09:12:03.701Z,37.67
2022-08-25T09:14:38.390Z,38.55
2022-08-25T09:17:35.631Z,39.17
2022-08-25T09:20:36.697Z,38.90
2022-08-25T09:23:20.351Z,37.30
2022-08-25T09:26:03.847Z,37.15
2022-08-25T09:28:43.066Z,37.03
2022-08-25T09:31:16.169Z,37.78
2022-08-25T09:33:43.017Z,36.58
2022-08-25T09:36:09.785Z,36.30
2022-08-25T09:38:37.116Z,36.83
2022-08-25T09:41:05.252Z,34.45
2022-08-25T09:43:41.837Z,36.63
2022-08-25T09:46:08.544Z,36.85
2022-08-25T09:48:44.869Z,37.08
2022-08-25T09:51:38.075Z,34.60
2022-08-25T09:54:12.979Z,35.35
2022-08-25T09:56:54.879Z,36.22
2022-08-25T09:59:34.948Z,34.30
2022-08-25T10:02:25.944Z,37.05
2022-08-25T10:04:53.399Z,35.85
2022-08-25T10:07:29.555Z,35.22
2022-08-25T10:10:07.595Z,34.50
2022-08-25T10:12:42.605Z,35.88
2022-08-25T10:15:29.829Z,34.83
2022-08-25T10:18:29.938Z,35.25
2022-08-25T10:21:18.931Z,36.28
2022-08-25T10:23:51.560Z,35.42
2022-08-25T10:26:58.220Z,32.83
2022-08-25T10:29:27.677Z,33.60
2022-08-25T10:32:03.972Z,36.20
2022-08-25T10:34:44.374Z,34.17
2022-08-25T10:37:42.196Z,35.42
2022-08-25T10:40:37.155Z,34.88
2022-08-25T10:43:33.547Z,35.50
2022-08-25T10:46:49.512Z,37.47
2022-08-25T10:49:16.251Z,35.17
2022-08-25T10:51:55.785Z,35.28
2022-08-25T10:54:40.768Z,35.72
2022-08-25T10:57:25.879Z,35.75
2022-08-25T11:00:10.725Z,36.25
2022-08-25T11:03:06.884Z,33.40
2022-08-25T11:05:41.978Z,36.42
2022-08-25T11:08:16.347Z,36.95
2022-08-25T11:10:48.020Z,36.55
2022-08-25T11:13:25.746Z,35.33
2022-08-25T11:16:18.569Z,35.25
2022-08-25T11:18:59.350Z,35.38
2022-08-25T11:21:47.011Z,37.75
2022-08-25T11:24:39.745Z,35.92
2022-08-25T11:27:13.930Z,37.75
2022-08-25T11:29:43.719Z,35.65
2022-08-25T11:32:10.753Z,35.38
2022-08-25T11:34:40.105Z,34.97
2022-08-25T11:37:28.495Z,36.38
2022-08-25T11:40:01.265Z,34.63
2022-08-25T11:42:37.663Z,34.95
2022-08-25T11:45:07.713Z,34.95
2022-08-25T11:47:41.164Z,37.42
2022-08-25T11:50:32.082Z,35.40
2022-08-25T11:53:26.644Z,35.53
2022-08-25T11:55:58.760Z,33.88
2022-08-25T11:58:28.213Z,35.10
2022-08-25T12:01:02.299Z,36.65
2022-08-25T12:03:32.106Z,36.75
2022-08-25T12:06:21.297Z,35.83
2022-08-25T12:09:13.182Z,32.70
2022-08-25T12:11:46.735Z,35.30
2022-08-25T12:14:16.516Z,32.65
2022-08-25T12:16:55.380Z,32.88
2022-08-25T12:19:34.579Z,35.67
2022-08-25T12:22:03.493Z,37.08
2022-08-25T12:25:03.377Z,32.55
2022-08-25T12:27:52.538Z,35.05
2022-08-25T12:30:27.760Z,34.60
2022-08-25T12:33:23.233Z,33.88
2022-08-25T12:35:57.744Z,36.88
2022-08-25T12:38:45.447Z,34.80
2022-08-25T12:41:19.030Z,33.13
2022-08-25T12:43:48.038Z,34.13
2022-08-25T12:46:25.754Z,35.15
2022-08-25T12:49:02.994Z,33.90
2022-08-25T12:51:35.814Z,33.70
2022-08-25T12:54:33.796Z,34.30
2022-08-25T12:57:03.856Z,34.83
2022-08-25T12:59:48.624Z,33.88
2022-08-25T13:02:52.175Z,33.38
2022-08-25T13:05:52.759Z,34.90
2022-08-25T13:08:50.660Z,34.13
2022-08-25T13:11:45.127Z,33.50
2022-08-25T13:14:39.518Z,33.47
2022-08-25T13:17:07.475Z,35.63
2022-08-25T13:19:37.241Z,35.40
2022-08-25T13:22:16.518Z,35.20
2022-08-25T13:24:47.529Z,35.55
2022-08-25T13:27:26.347Z,35.67
2022-08-25T13:29:56.330Z,35.08
2022-08-25T13:32:36.079Z,34.60
2022-08-25T13:35:19.964Z,35.15
2022-08-25T13:37:47.971Z,36.08
2022-08-25T13:40:26.180Z,34.92
2022-08-25T13:43:06.315Z,33.92
2022-08-25T13:45:40.238Z,36.95
2022-08-25T13:48:23.056Z,35.88
2022-08-25T13:50:52.063Z,35.42
2022-08-25T13:53:26.792Z,35.42
2022-08-25T13:56:00.543Z,34.42
2022-08-25T13:58:44.397Z,35.92
2022-08-25T14:01:19.911Z,35.53
2022-08-25T14:04:22.440Z,35.22
2022-08-25T14:07:04.776Z,35.20
2022-08-25T14:09:41.185Z,34.15
2022-08-25T14:12:08.034Z,33.85
2022-08-25T14:14:36.179Z,35.35
2022-08-25T14:17:22.167Z,34.67
2022-08-25T14:19:57.430Z,35.35
2022-08-25T14:22:24.337Z,34.28
2022-08-25T14:24:53.437Z,34.85
2022-08-25T14:27:20.258Z,35.60
2022-08-25T14:29:50.946Z,34.80
2022-08-25T14:32:19.350Z,34.40
2022-08-25T14:34:46.949Z,34.25
2022-08-25T14:37:17.641Z,34.88
2022-08-25T14:39:44.634Z,34.60
2022-08-25T14:42:13.096Z,33.83
2022-08-25T14:44:39.879Z,33.47
2022-08-25T14:47:08.036Z,33.30
2022-08-25T14:49:42.479Z,34.33
2022-08-25T14:52:30.243Z,34.42
2022-08-25T14:54:57.248Z,35.38
2022-08-25T14:57:24.894Z,34.47
2022-08-25T14:59:52.306Z,36.15
2022-08-25T15:02:22.636Z,35.65
2022-08-25T15:05:02.336Z,34.30
2022-08-25T15:07:51.280Z,34.90
2022-08-25T15:10:19.031Z,37.65
2022-08-25T15:12:48.539Z,37.63
2022-08-25T15:15:20.749Z,34.47
2022-08-25T15:17:49.487Z,33.15
2022-08-25T15:20:17.119Z,34.67
2022-08-25T15:22:45.350Z,35.58
2022-08-25T15:25:12.040Z,34.42
2022-08-25T15:27:38.747Z,33.53
2022-08-25T15:30:05.931Z,32.85
2022-08-25T15:32:32.740Z,34.60
2022-08-25T15:35:00.773Z,34.80
2022-08-25T15:37:28.519Z,35.17
2022-08-25T15:39:55.865Z,35.28
2022-08-25T15:42:22.756Z,35.05
2022-08-25T15:44:53.228Z,34.17
2022-08-25T15:47:21.203Z,36.55
2022-08-25T15:49:48.043Z,34.72
2022-08-25T15:52:15.668Z,34.95
2022-08-25T15:54:42.448Z,36.22
2022-08-25T15:57:15.102Z,34.53
2022-08-25T15:59:52.356Z,33.92
2022-08-25T16:02:20.585Z,34.33
2022-08-25T16:04:47.895Z,34.20
2022-08-25T16:07:14.686Z,34.28
2022-08-25T16:09:41.638Z,33.47
2022-08-25T16:12:08.777Z,32.63
2022-08-25T16:14:36.735Z,32.83
2022-08-25T16:17:05.204Z,32.35
2022-08-25T16:19:32.448Z,30.45
2022-08-25T16:22:00.742Z,32.28
2022-08-25T16:24:27.618Z,33.03
2022-08-25T16:26:56.063Z,32.92
2022-08-25T16:29:23.461Z,33.50
2022-08-25T16:31:53.358Z,32.60
2022-08-25T16:34:22.225Z,33.75
2022-08-25T16:36:52.748Z,32.42
2022-08-25T16:39:20.874Z,32.38
2022-08-25T16:41:48.316Z,33.42
2022-08-25T16:44:15.313Z,35.38
2022-08-25T16:46:42.862Z,36.30
2022-08-25T16:49:12.495Z,33.63
2022-08-25T16:51:40.588Z,34.33
2022-08-25T16:54:28.674Z,34.20
2022-08-25T16:56:57.237Z,34.33
2022-08-25T16:59:24.789Z,35.25
2022-08-25T17:01:52.535Z,36.20
2022-08-25T17:04:19.961Z,36.40
2022-08-25T17:06:49.440Z,36.05
2022-08-25T17:09:24.170Z,37.08
2022-08-25T17:11:56.434Z,36.83
2022-08-25T17:14:23.401Z,37.85
2022-08-25T17:16:54.437Z,38.42
2022-08-25T17:19:22.084Z,39.42
2022-08-25T17:21:50.987Z,39.85
2022-08-25T17:24:17.761Z,38.80
2022-08-25T17:26:47.142Z,40.33
2022-08-25T17:29:14.242Z,37.45
2022-08-25T17:31:43.832Z,34.83
2022-08-25T17:34:16.208Z,33.13
2022-08-25T17:36:44.062Z,34.47
2022-08-25T17:39:13.242Z,33.63
2022-08-25T17:41:42.861Z,33.42
2022-08-25T17:44:09.582Z,32.30
2022-08-25T17:46:37.152Z,32.85
2022-08-25T17:49:07.638Z,33.90
2022-08-25T17:51:34.605Z,34.63
2022-08-25T17:54:01.482Z,34.10
2022-08-25T17:56:28.489Z,32.38
2022-08-25T17:58:56.332Z,33.40
2022-08-25T18:01:24.679Z,33.75
2022-08-25T18:03:52.397Z,33.42
2022-08-25T18:06:20.745Z,34.38
2022-08-25T18:08:52.176Z,33.58
2022-08-25T18:11:20.362Z,34.05
2022-08-25T18:13:47.274Z,34.97
2022-08-25T18:16:17.187Z,35.17
2022-08-25T18:18:44.932Z,31.90
2022-08-25T18:21:14.487Z,32.33
2022-08-25T18:23:42.501Z,31.35
2022-08-25T18:26:12.843Z,31.85
2022-08-25T18:28:40.023Z,31.33
2022-08-25T18:31:07.279Z,32.13
2022-08-25T18:33:34.652Z,33.90
2022-08-25T18:36:02.217Z,32.10
2022-08-25T18:38:47.755Z,33.97
2022-08-25T18:43:41.130Z,34.72
2022-08-25T18:46:08.213Z,34.05
2022-08-25T18:48:37.242Z,35.28
2022-08-25T18:51:04.534Z,34.63
2022-08-25T18:53:49.638Z,36.42
2022-08-25T18:56:17.944Z,34.58
2022-08-25T18:58:45.410Z,38.50
2022-08-25T19:01:14.787Z,35.92
2022-08-25T19:03:42.947Z,35.53
2022-08-25T19:06:09.817Z,34.80
2022-08-25T19:08:39.993Z,35.72
2022-08-25T19:11:09.659Z,34.05
2022-08-25T19:13:37.065Z,34.50
2022-08-25T19:16:31.304Z,35.67
2022-08-25T19:18:58.393Z,34.22
2022-08-25T19:21:25.340Z,35.13
2022-08-25T19:23:52.961Z,35.15
2022-08-25T19:26:20.807Z,35.00
2022-08-25T19:28:49.391Z,34.72
2022-08-25T19:31:22.156Z,33.95
2022-08-25T19:33:51.263Z,34.53
2022-08-25T19:36:23.031Z,33.38
2022-08-25T19:38:52.325Z,35.00
2022-08-25T19:41:19.924Z,34.45
2022-08-25T19:43:50.507Z,35.60
2022-08-25T19:46:32.963Z,34.38
2022-08-25T19:49:09.132Z,34.22
2022-08-25T19:51:44.824Z,33.38
2022-08-25T19:54:14.890Z,34.03
2022-08-25T19:56:43.625Z,34.08
2022-08-25T19:59:20.917Z,34.03
2022-08-25T20:01:50.343Z,34.38
2022-08-25T20:04:17.069Z,34.15
2022-08-25T20:06:43.817Z,33.88
2022-08-25T20:09:20.766Z,33.45
2022-08-25T20:12:03.851Z,32.95
2022-08-25T20:14:33.843Z,35.60
2022-08-25T20:17:02.029Z,33.30
2022-08-25T20:19:31.005Z,34.15
2022-08-25T20:21:58.794Z,34.28
2022-08-25T20:24:44.050Z,33.13
2022-08-25T20:29:38.172Z,33.05
2022-08-25T20:32:05.341Z,34.85
2022-08-25T20:34:32.609Z,34.10
2022-08-25T20:37:00.701Z,33.13
2022-08-25T20:39:27.532Z,33.38
2022-08-25T20:41:54.311Z,33.35
2022-08-25T20:44:23.346Z,33.33
2022-08-25T20:46:50.393Z,33.42
2022-08-25T20:49:20.091Z,34.00
2022-08-25T20:51:46.781Z,33.38
2022-08-25T20:54:17.286Z,32.42
2022-08-25T20:56:44.392Z,33.75
2022-08-25T20:59:11.672Z,33.72
2022-08-25T21:01:42.901Z,34.30
2022-08-25T21:04:14.631Z,33.45
2022-08-25T21:06:42.653Z,32.47
2022-08-25T21:09:15.698Z,34.08
2022-08-25T21:11:44.275Z,32.70
2022-08-25T21:14:13.243Z,32.72
2022-08-25T21:16:47.205Z,32.80
2022-08-25T21:19:16.633Z,33.17
2022-08-25T21:21:43.782Z,32.92
2022-08-25T21:24:12.253Z,33.78
2022-08-25T21:26:47.696Z,32.63
2022-08-25T21:29:18.363Z,33.40
2022-08-25T21:31:46.345Z,34.33
2022-08-25T21:34:19.830Z,33.92
2022-08-25T21:36:47.922Z,33.63
2022-08-25T21:39:15.074Z,32.63
2022-08-25T21:41:45.698Z,33.83
2022-08-25T21:44:13.217Z,34.10
2022-08-25T21:46:54.607Z,34.03
2022-08-25T21:49:23.386Z,33.28
2022-08-25T21:51:59.170Z,34.00
2022-08-25T21:54:26.507Z,36.53
2022-08-25T21:57:23.605Z,34.20
2022-08-25T21:59:50.997Z,32.70
2022-08-25T22:02:22.565Z,33.80
2022-08-25T22:04:53.828Z,32.75
2022-08-25T22:07:29.048Z,33.25
2022-08-25T22:10:01.668Z,34.28
2022-08-25T22:12:28.409Z,33.42
2022-08-25T22:14:55.085Z,33.10
2022-08-25T22:17:24.218Z,34.97
2022-08-25T22:19:53.539Z,34.83
2022-08-25T22:22:21.021Z,34.22
2022-08-25T22:24:47.844Z,34.00
2022-08-25T22:27:15.709Z,35.25
2022-08-25T22:29:43.927Z,34.10
2022-08-25T22:32:13.770Z,33.13
2022-08-25T22:34:40.913Z,32.97
2022-08-25T22:37:10.280Z,34.78
2022-08-25T22:39:37.288Z,35.00
2022-08-25T22:42:07.368Z,32.72
2022-08-25T22:44:36.107Z,32.75
2022-08-25T22:47:02.890Z,32.72
2022-08-25T22:49:30.226Z,33.95
2022-08-25T22:51:56.972Z,32.05
2022-08-25T22:54:25.285Z,32.65
2022-08-25T22:56:52.594Z,35.17
2022-08-25T22:59:19.750Z,33.80
2022-08-25T23:01:49.530Z,33.90
2022-08-25T23:04:16.254Z,33.95
2022-08-25T23:06:44.918Z,33.80
2022-08-25T23:09:14.382Z,33.78
2022-08-25T23:11:42.983Z,32.42
2022-08-25T23:14:11.097Z,33.83
2022-08-25T23:16:39.078Z,33.38
2022-08-25T23:19:06.193Z,33.67
2022-08-25T23:21:52.999Z,34.30
2022-08-25T23:24:29.106Z,34.72
2022-08-25T23:27:01.252Z,36.80
2022-08-25T23:29:29.839Z,35.38
2022-08-25T23:31:58.073Z,35.85
2022-08-25T23:34:25.379Z,33.75
2022-08-25T23:36:52.434Z,34.05
2022-08-25T23:39:21.949Z,32.88
2022-08-25T23:41:49.898Z,34.88
2022-08-25T23:44:18.617Z,34.33
2022-08-25T23:46:47.202Z,33.83
2022-08-25T23:49:18.561Z,34.00
2022-08-25T23:51:47.345Z,34.20
2022-08-25T23:54:15.855Z,33.42
2022-08-25T23:56:44.663Z,34.70
